Time;durP1;ratioP1;P1;durP2;ratioP2;P2;SDS_P1;SDS_P2;PMS_P1;PMS_P2;Temp;Humidity;BMP_temperature;BMP_pressure;BME280_temperature;BME280_humidity;BME280_pressure;Samples;Min_cycle;Max_cycle;Signal;HPM_P1;HPM_P2
2021/12/11 00:00:22;;;;;;;215.20;74.03;;;;;;;-2.19;76.57;97393.44;5036273;28;20489;-68
2021/12/11 00:03:35;;;;;;;244.98;78.95;;;;;;;-2.11;76.09;97387.69;5041168;28;20478;-68
2021/12/11 00:06:06;;;;;;;251.85;81.47;;;;;;;-2.07;76.38;97388.03;5062364;28;20487;-67
2021/12/11 00:08:32;;;;;;;275.17;86.88;;;;;;;-2.08;76.27;97389.09;5031123;28;20036;-67
2021/12/11 00:11:20;;;;;;;303.88;96.00;;;;;;;-2.03;76.18;97391.03;5030831;28;20022;-67
2021/12/11 00:13:46;;;;;;;287.50;88.43;;;;;;;-1.95;76.31;97386.06;5038733;28;20033;-68
2021/12/11 00:16:18;;;;;;;352.88;109.65;;;;;;;-1.87;76.61;97392.94;5039100;28;20036;-68
2021/12/11 00:18:44;;;;;;;346.67;110.95;;;;;;;-1.77;76.50;97394.16;5039815;28;20075;-67
2021/12/11 00:21:15;;;;;;;323.88;106.65;;;;;;;-1.71;76.78;97403.94;5039148;28;20108;-68
2021/12/11 00:24:25;;;;;;;282.50;95.82;;;;;;;-1.69;76.74;97409.91;5037885;28;20021;-67
2021/12/11 00:27:12;;;;;;;258.42;91.57;;;;;;;-1.71;76.57;97422.78;5037998;28;20029;-68
2021/12/11 00:29:38;;;;;;;238.10;76.63;;;;;;;-1.74;76.27;97432.16;5036723;28;20083;-68
2021/12/11 00:32:09;;;;;;;256.42;84.13;;;;;;;-1.73;76.39;97435.63;5030609;28;20025;-67
2021/12/11 00:34:37;;;;;;;237.95;78.38;;;;;;;-1.68;76.52;97433.03;5042476;28;20049;-68
2021/12/11 00:37:07;;;;;;;261.33;87.25;;;;;;;-1.67;76.80;97448.94;5050141;28;20036;-68
2021/12/11 00:39:38;;;;;;;239.43;85.03;;;;;;;-1.61;76.52;97449.84;5050492;28;20040;-67
2021/12/11 00:42:09;;;;;;;210.55;75.55;;;;;;;-1.56;76.66;97449.09;5035053;28;20036;-68
2021/12/11 00:44:47;;;;;;;206.85;71.10;;;;;;;-1.51;76.56;97459.94;5029301;28;20069;-68
2021/12/11 00:47:19;;;;;;;195.30;68.63;;;;;;;-1.51;76.40;97460.78;5032991;28;20115;-68
2021/12/11 00:50:02;;;;;;;168.63;61.85;;;;;;;-1.43;76.63;97456.88;5041200;28;20026;-67
2021/12/11 00:52:43;;;;;;;155.32;56.40;;;;;;;-1.45;76.55;97469.75;5038775;28;20029;-68
2021/12/11 00:55:28;;;;;;;161.63;58.28;;;;;;;-1.46;76.50;97462.72;5062070;28;20409;-67
2021/12/11 00:58:22;;;;;;;171.82;59.45;;;;;;;-1.43;76.39;97478.38;5039592;28;20027;-67
2021/12/11 01:01:00;;;;;;;199.02;73.25;;;;;;;-1.34;76.39;97470.72;5070557;28;20044;-69
2021/12/11 01:03:33;;;;;;;179.18;65.45;;;;;;;-1.31;76.48;97480.22;5049903;28;20071;-68
2021/12/11 01:06:01;;;;;;;182.48;63.00;;;;;;;-1.38;75.99;97480.34;5047810;28;20017;-69
2021/12/11 01:08:34;;;;;;;177.80;63.67;;;;;;;-1.50;75.40;97483.94;5043153;28;20052;-67
2021/12/11 01:11:12;;;;;;;165.95;59.50;;;;;;;-1.54;75.93;97488.16;5040456;28;20083;-67
2021/12/11 01:13:47;;;;;;;167.82;58.30;;;;;;;-1.57;75.91;97485.94;5036426;28;20470;-67
2021/12/11 01:16:15;;;;;;;164.18;56.38;;;;;;;-1.53;76.10;97495.16;5036486;28;20104;-68
2021/12/11 01:18:48;;;;;;;176.80;67.38;;;;;;;-1.56;76.03;97498.34;5035910;28;20117;-67
2021/12/11 01:26:32;;;;;;;155.48;56.08;;;;;;;-1.57;76.16;97504.78;5039042;28;20044;-67
2021/12/11 01:28:58;;;;;;;160.77;59.50;;;;;;;-1.52;76.20;97515.63;5039267;28;20041;-67
2021/12/11 01:31:24;;;;;;;155.15;58.80;;;;;;;-1.43;76.36;97509.88;5036849;28;20497;-68
2021/12/11 01:33:52;;;;;;;139.45;51.55;;;;;;;-1.42;76.11;97517.69;5037044;28;20523;-67
2021/12/11 01:36:18;;;;;;;134.65;53.22;;;;;;;-1.41;76.09;97518.47;5039434;28;20029;-68
2021/12/11 01:38:45;;;;;;;123.78;48.67;;;;;;;-1.38;76.26;97526.06;5039064;28;20030;-67
2021/12/11 01:41:17;;;;;;;131.50;47.53;;;;;;;-1.44;75.98;97527.06;5044127;28;20461;-67
2021/12/11 01:43:43;;;;;;;143.77;52.72;;;;;;;-1.52;76.02;97534.44;5045443;28;20021;-67
2021/12/11 01:46:11;;;;;;;141.95;52.20;;;;;;;-1.60;75.60;97531.31;5045033;28;20025;-67
2021/12/11 01:48:40;;;;;;;148.15;55.97;;;;;;;-1.66;75.95;97527.72;5047480;28;20444;-68
2021/12/11 01:51:12;;;;;;;118.85;49.70;;;;;;;-1.70;75.91;97532.78;5047816;28;20036;-67
2021/12/11 01:53:48;;;;;;;112.38;44.00;;;;;;;-1.70;76.04;97534.63;5049348;28;20116;-67
2021/12/11 01:56:18;;;;;;;117.38;47.15;;;;;;;-1.70;76.13;97532.78;5036413;28;20116;-68
2021/12/11 01:58:50;;;;;;;;;;;;;;;-1.73;76.21;97535.09;5033757;28;20029;-68
2021/12/11 02:01:28;;;;;;;145.85;55.10;;;;;;;-1.80;76.26;97538.75;5033277;28;19917;-68
2021/12/11 02:03:58;;;;;;;133.88;50.20;;;;;;;-1.86;76.23;97539.72;5046663;28;20040;-68
2021/12/11 02:06:31;;;;;;;;;;;;;;;-1.86;76.33;97542.41;5048977;28;20024;-68
2021/12/11 02:08:57;;;;;;;129.15;47.30;;;;;;;-1.87;76.61;97546.16;5050503;28;19924;-66
2021/12/11 02:11:27;;;;;;;99.80;39.63;;;;;;;-1.87;76.33;97543.47;5048717;28;20109;-66
2021/12/11 02:14:03;;;;;;;89.93;35.65;;;;;;;-1.83;76.77;97547.28;5049626;28;20083;-66
2021/12/11 02:16:38;;;;;;;83.03;34.50;;;;;;;-1.81;76.60;97555.13;5046309;28;20021;-66
2021/12/11 02:19:17;;;;;;;79.45;33.80;;;;;;;-1.76;76.83;97557.09;5049625;28;20032;-66
2021/12/11 02:21:56;;;;;;;81.50;36.08;;;;;;;-1.69;76.97;97560.47;5049743;28;20057;-66
2021/12/11 02:24:25;;;;;;;84.07;36.25;;;;;;;-1.59;77.61;97554.47;5048518;28;20409;-66
2021/12/11 02:26:54;;;;;;;79.22;36.92;;;;;;;-1.51;77.10;97564.84;5049827;28;20036;-66
2021/12/11 02:29:34;;;;;;;81.60;38.05;;;;;;;-1.35;77.38;97565.94;5048664;28;20025;-66
2021/12/11 02:32:26;;;;;;;79.22;37.35;;;;;;;-1.21;77.44;97574.53;5046547;28;20055;-66
2021/12/11 02:34:57;;;;;;;67.30;31.98;;;;;;;-1.10;77.65;97572.84;5044598;28;20119;-66
2021/12/11 02:37:34;;;;;;;82.90;36.83;;;;;;;-1.06;77.23;97574.00;5048437;28;20021;-66
2021/12/11 02:40:27;;;;;;;84.70;37.08;;;;;;;-0.97;77.33;97582.50;5049306;28;20038;-67
2021/12/11 02:43:27;;;;;;;78.60;34.22;;;;;;;-0.90;76.74;97583.16;5045126;28;20067;-66
2021/12/11 02:46:09;;;;;;;81.45;36.38;;;;;;;-0.88;77.23;97585.59;5035240;28;20490;-66
2021/12/11 02:48:40;;;;;;;93.40;40.40;;;;;;;-0.88;76.69;97585.59;5035910;28;20492;-66
2021/12/11 02:51:16;;;;;;;100.68;39.72;;;;;;;-0.92;76.46;97588.75;5036384;28;20028;-66
2021/12/11 02:53:48;;;;;;;99.03;44.08;;;;;;;-1.00;76.72;97597.22;5039395;28;20063;-66
2021/12/11 02:56:25;;;;;;;103.72;45.30;;;;;;;-1.02;76.31;97601.22;5038799;28;20036;-66
2021/12/11 02:58:56;;;;;;;103.40;43.33;;;;;;;-1.05;76.36;97599.84;5036287;28;20025;-66
2021/12/11 03:01:30;;;;;;;109.00;43.72;;;;;;;-0.97;76.86;97606.72;5038402;28;20033;-66
2021/12/11 03:04:12;;;;;;;109.82;43.53;;;;;;;-0.92;76.83;97602.22;5040270;28;20034;-66
2021/12/11 03:06:43;;;;;;;105.68;47.13;;;;;;;-0.88;77.07;97610.66;5039460;28;20029;-66
2021/12/11 03:09:10;;;;;;;98.22;42.80;;;;;;;-0.94;76.55;97607.03;5039982;28;20048;-66
2021/12/11 03:11:36;;;;;;;114.60;48.28;;;;;;;-0.94;76.63;97606.22;5038041;28;20030;-66
2021/12/11 03:14:04;;;;;;;111.63;46.20;;;;;;;-0.89;76.55;97611.72;5036851;28;20094;-66
2021/12/11 03:16:33;;;;;;;112.55;48.75;;;;;;;-0.86;76.82;97610.38;5039695;28;20025;-66
2021/12/11 03:19:00;;;;;;;112.72;47.20;;;;;;;-0.82;76.70;97623.16;5037126;28;20025;-66
2021/12/11 03:21:25;;;;;;;109.13;44.30;;;;;;;-0.84;76.90;97619.88;5039434;28;20037;-66
2021/12/11 03:23:53;;;;;;;114.30;45.33;;;;;;;-0.81;76.61;97618.56;5037851;28;20436;-65
2021/12/11 03:26:19;;;;;;;107.68;47.35;;;;;;;-0.81;76.67;97626.63;5037871;28;20043;-66
2021/12/11 03:28:45;;;;;;;112.90;46.42;;;;;;;-0.84;76.47;97622.56;5039031;28;20032;-66
2021/12/11 03:31:11;;;;;;;120.75;48.35;;;;;;;-0.83;76.56;97624.19;5034838;28;20421;-66
2021/12/11 03:33:42;;;;;;;127.50;50.38;;;;;;;-0.78;76.13;97626.16;5035702;28;20057;-66
2021/12/11 03:36:09;;;;;;;136.20;53.40;;;;;;;-0.79;76.59;97616.44;5037815;28;20382;-65
2021/12/11 03:38:38;;;;;;;127.72;51.00;;;;;;;-0.81;76.50;97619.34;5036635;28;20056;-66
2021/12/11 03:41:05;;;;;;;108.28;44.80;;;;;;;-0.81;76.60;97626.63;5035498;28;20036;-66
2021/12/11 03:43:32;;;;;;;123.90;49.28;;;;;;;-0.82;76.53;97630.38;5037736;28;20470;-66
2021/12/11 03:46:03;;;;;;;124.57;48.95;;;;;;;-0.81;76.82;97622.06;5036151;28;20026;-66
2021/12/11 03:48:51;;;;;;;131.77;51.85;;;;;;;-0.80;76.44;97637.16;5038760;28;20052;-66
2021/12/11 03:51:20;;;;;;;120.75;47.92;;;;;;;-0.83;76.59;97626.06;5039939;28;20047;-66
2021/12/11 03:53:46;;;;;;;125.57;47.08;;;;;;;-0.84;76.51;97627.13;5038671;28;20140;-66
2021/12/11 03:56:14;;;;;;;115.00;48.67;;;;;;;-0.86;76.21;97637.31;5038015;28;20421;-66
2021/12/11 03:58:48;;;;;;;92.25;36.85;;;;;;;-0.90;76.07;97637.78;5039280;28;20022;-65
2021/12/11 04:01:19;;;;;;;90.20;40.42;;;;;;;-0.91;76.38;97640.75;5038268;28;20037;-65
2021/12/11 04:03:49;;;;;;;99.07;42.75;;;;;;;-0.93;76.08;97640.97;5039049;28;20187;-65
2021/12/11 04:06:15;;;;;;;100.23;42.63;;;;;;;-0.95;76.18;97639.59;5040788;28;20083;-65
2021/12/11 04:08:43;;;;;;;100.40;43.50;;;;;;;-0.98;76.06;97632.78;5040786;28;20275;-65
2021/12/11 04:11:18;;;;;;;102.82;43.05;;;;;;;-1.05;76.15;97638.34;5041610;28;20025;-65
2021/12/11 04:13:45;;;;;;;114.57;47.90;;;;;;;-1.20;75.66;97641.56;5042040;28;20048;-66
2021/12/11 04:16:14;;;;;;;105.15;44.60;;;;;;;-1.31;75.90;97649.69;5047343;28;20059;-65
2021/12/11 04:18:40;;;;;;;105.03;44.03;;;;;;;-1.43;75.56;97649.72;5043120;28;20033;-65
2021/12/11 04:21:06;;;;;;;104.80;41.97;;;;;;;-1.53;75.75;97653.84;5046820;28;20583;-65
2021/12/11 04:23:32;;;;;;;85.75;36.65;;;;;;;-1.60;75.78;97645.06;5044832;28;20029;-66
2021/12/11 04:25:58;;;;;;;92.70;38.70;;;;;;;-1.61;75.94;97659.56;5047246;28;20025;-65
2021/12/11 04:28:29;;;;;;;80.07;36.78;;;;;;;-1.59;76.30;97659.31;5038933;28;20040;-65
2021/12/11 04:31:03;;;;;;;87.53;36.25;;;;;;;-1.52;76.48;97655.47;5036165;28;20077;-66
2021/12/11 04:33:29;;;;;;;87.00;39.97;;;;;;;-1.48;76.13;97663.06;5050648;28;20521;-65
2021/12/11 04:35:55;;;;;;;95.35;39.92;;;;;;;-1.46;76.35;97663.66;5049475;28;20017;-66
2021/12/11 04:38:21;;;;;;;86.82;40.72;;;;;;;-1.50;76.52;97672.19;5050700;28;20025;-65
2021/12/11 04:40:52;;;;;;;83.65;38.05;;;;;;;-1.51;76.31;97661.66;5050631;28;20036;-65
2021/12/11 04:43:20;;;;;;;86.50;38.08;;;;;;;-1.54;76.46;97664.81;5050827;28;20032;-66
2021/12/11 04:45:52;;;;;;;90.43;37.80;;;;;;;-1.48;76.64;97674.63;5033333;28;20051;-65
2021/12/11 04:48:43;;;;;;;92.05;40.03;;;;;;;-1.39;76.62;97675.91;5030203;28;20030;-65
2021/12/11 04:59:29;;;;;;;90.00;37.67;;;;;;;-1.12;76.99;97688.00;5050058;28;20035;-66
2021/12/11 05:10:23;;;;;;;99.53;40.30;;;;;;;-0.88;77.09;97704.88;5030542;28;20046;-65
2021/12/11 05:12:54;;;;;;;96.80;39.70;;;;;;;-0.83;76.75;97707.66;5049187;28;20457;-65
2021/12/11 05:15:26;;;;;;;95.97;42.45;;;;;;;-0.77;76.49;97712.06;5051808;28;20462;-64
2021/12/11 05:17:52;;;;;;;96.40;39.83;;;;;;;-0.73;76.88;97711.59;5053870;28;20048;-66
2021/12/11 05:20:21;;;;;;;95.07;41.92;;;;;;;-0.76;76.70;97710.19;5053084;28;20043;-65
2021/12/11 05:22:47;;;;;;;90.35;40.42;;;;;;;-0.72;76.69;97715.91;5053535;28;20025;-65
2021/12/11 05:25:13;;;;;;;96.78;40.08;;;;;;;-0.73;76.22;97716.97;5053526;28;20071;-66
2021/12/11 05:27:40;;;;;;;92.15;38.97;;;;;;;-0.73;76.33;97723.19;5053749;28;20469;-66
2021/12/11 05:30:13;;;;;;;84.90;40.05;;;;;;;-0.77;76.36;97724.72;5053624;28;20052;-65
2021/12/11 05:32:39;;;;;;;106.18;46.63;;;;;;;-0.84;76.28;97726.72;5053490;28;20126;-65
2021/12/11 05:35:07;;;;;;;95.45;39.70;;;;;;;-0.83;76.30;97741.84;5052862;28;20863;-66
2021/12/11 05:37:33;;;;;;;94.80;39.85;;;;;;;-0.87;76.22;97735.28;5053981;28;20485;-66
2021/12/11 05:39:59;;;;;;;80.43;34.55;;;;;;;-0.92;75.84;97728.75;5053564;28;20048;-66
2021/12/11 05:42:25;;;;;;;95.22;40.90;;;;;;;-0.99;75.92;97729.94;5053452;28;20029;-65
2021/12/11 05:44:50;;;;;;;96.20;42.70;;;;;;;-0.99;76.37;97738.03;5052788;28;20029;-66
2021/12/11 05:47:16;;;;;;;91.30;38.92;;;;;;;-1.00;76.43;97739.09;5053480;28;20381;-65
2021/12/11 05:49:44;;;;;;;86.30;37.67;;;;;;;-0.96;76.66;97753.69;5053505;28;20029;-65
2021/12/11 05:52:11;;;;;;;82.55;36.67;;;;;;;-0.92;76.23;97752.16;5038757;28;20056;-66
2021/12/11 05:54:39;;;;;;;88.53;38.80;;;;;;;-0.93;76.51;97754.03;5033040;28;20032;-65
2021/12/11 05:57:09;;;;;;;83.20;35.50;;;;;;;-0.95;76.11;97753.44;5052153;28;20552;-66
2021/12/11 05:59:35;;;;;;;90.97;42.15;;;;;;;-0.94;76.46;97759.66;5053428;28;20035;-66
2021/12/11 06:02:06;;;;;;;89.97;39.05;;;;;;;-0.84;76.56;97767.13;5053362;28;20098;-66
2021/12/11 06:04:35;;;;;;;88.68;37.78;;;;;;;-0.73;76.86;97763.56;5053188;28;20055;-65
2021/12/11 06:07:02;;;;;;;78.15;36.10;;;;;;;-0.67;77.05;97770.69;5037997;28;20049;-65
2021/12/11 06:09:29;;;;;;;67.43;31.75;;;;;;;-0.64;76.41;97774.78;5033852;28;20025;-65
2021/12/11 06:11:59;;;;;;;73.63;32.50;;;;;;;-0.65;76.37;97776.66;5032865;28;20048;-65
2021/12/11 06:14:25;;;;;;;70.75;31.20;;;;;;;-0.65;76.46;97775.84;5032570;28;20025;-66
2021/12/11 06:16:53;;;;;;;65.85;30.33;;;;;;;-0.69;76.03;97772.81;5032581;28;20033;-65
2021/12/11 06:19:21;;;;;;;159.98;59.58;;;;;;;-0.71;76.44;97784.88;5032971;28;20037;-66
2021/12/11 06:21:50;;;;;;;175.70;65.25;;;;;;;-0.72;76.52;97773.28;5031435;28;20390;-65
2021/12/11 06:24:17;;;;;;;196.15;73.03;;;;;;;-0.74;76.60;97788.88;5031523;28;20033;-65
2021/12/11 06:26:42;;;;;;;199.95;80.45;;;;;;;-0.73;76.20;97789.66;5048239;28;20055;-65
2021/12/11 06:29:08;;;;;;;159.48;66.63;;;;;;;-0.69;76.60;97794.34;5051568;28;20434;-65
2021/12/11 06:31:34;;;;;;;140.90;63.75;;;;;;;-0.65;76.58;97792.81;5052847;28;20112;-65
2021/12/11 06:34:00;;;;;;;103.82;46.08;;;;;;;-0.64;76.61;97797.16;5052139;28;20465;-65
2021/12/11 06:36:27;;;;;;;68.28;32.58;;;;;;;-0.63;76.57;97790.72;5052569;28;20048;-65
2021/12/11 06:39:00;;;;;;;61.67;28.70;;;;;;;-0.62;76.51;97800.44;5051239;28;20053;-65
2021/12/11 06:41:31;;;;;;;52.90;25.60;;;;;;;-0.64;76.67;97807.94;5052193;28;20394;-65
2021/12/11 06:43:57;;;;;;;54.00;25.42;;;;;;;-0.65;76.16;97808.16;5052195;28;20112;-65
2021/12/11 06:46:23;;;;;;;68.72;32.00;;;;;;;-0.65;76.22;97808.97;5052197;28;20029;-66
2021/12/11 06:48:48;;;;;;;93.63;37.03;;;;;;;-0.63;76.78;97820.34;5052455;28;20430;-66
2021/12/11 06:51:15;;;;;;;69.50;28.90;;;;;;;-0.55;76.33;97818.28;5051652;28;20111;-65
2021/12/11 06:53:46;;;;;;;90.18;33.58;;;;;;;-0.50;76.99;97823.78;5051779;28;20037;-65
2021/12/11 06:56:14;;;;;;;63.35;26.08;;;;;;;-0.42;76.79;97828.81;5051922;28;20393;-65
2021/12/11 06:58:40;;;;;;;69.20;30.98;;;;;;;-0.42;76.67;97839.56;5052355;28;20025;-65
2021/12/11 07:01:07;;;;;;;74.93;33.70;;;;;;;-0.35;76.50;97834.88;5041379;28;20513;-65
2021/12/11 07:03:34;;;;;;;86.50;37.38;;;;;;;-0.23;76.93;97847.50;5031018;28;20048;-66
2021/12/11 07:06:00;;;;;;;65.50;32.00;;;;;;;-0.12;77.12;97851.19;5042740;28;20111;-65
2021/12/11 07:08:27;;;;;;;76.82;32.17;;;;;;;-0.07;76.98;97852.06;5052188;28;20112;-65
2021/12/11 07:10:53;;;;;;;80.50;31.90;;;;;;;-0.02;76.67;97848.69;5050934;28;20048;-65
2021/12/11 07:13:19;;;;;;;83.40;32.10;;;;;;;-0.05;76.45;97851.84;5051775;28;20500;-66
2021/12/11 07:15:44;;;;;;;80.70;30.92;;;;;;;-0.10;76.56;97849.06;5052105;28;20017;-66
2021/12/11 07:18:10;;;;;;;82.10;32.53;;;;;;;-0.14;76.13;97858.69;5050938;28;20501;-65
2021/12/11 07:20:36;;;;;;;82.35;33.70;;;;;;;-0.21;76.11;97861.53;5037109;28;20029;-65
2021/12/11 07:23:03;;;;;;;74.93;32.83;;;;;;;-0.26;76.05;97867.63;5031905;28;20064;-65
2021/12/11 07:25:34;;;;;;;75.07;34.20;;;;;;;-0.30;76.80;97871.88;5032387;28;20026;-65
2021/12/11 07:28:03;;;;;;;73.53;32.00;;;;;;;-0.28;76.07;97883.22;5050358;28;20047;-65
2021/12/11 07:30:30;;;;;;;70.05;31.98;;;;;;;-0.28;76.45;97885.13;5051982;28;20056;-65
2021/12/11 07:32:58;;;;;;;61.20;29.35;;;;;;;-0.25;76.51;97898.91;5050863;28;20041;-66
2021/12/11 07:35:24;;;;;;;91.93;37.50;;;;;;;-0.15;76.46;97909.06;5036914;28;20029;-65
2021/12/11 07:37:51;;;;;;;93.25;35.65;;;;;;;-0.08;76.38;97900.84;5050607;28;20025;-65
2021/12/11 07:40:20;;;;;;;82.28;32.53;;;;;;;-0.04;76.50;97905.50;5033202;28;20030;-66
2021/12/11 07:42:46;;;;;;;103.10;41.90;;;;;;;0.01;76.27;97910.19;5049717;28;20492;-66
2021/12/11 07:45:15;;;;;;;100.97;39.97;;;;;;;0.10;76.32;97922.22;5035083;28;20132;-66
2021/12/11 07:47:41;;;;;;;104.22;39.15;;;;;;;0.09;76.08;97923.28;5040517;28;20463;-65
2021/12/11 07:50:07;;;;;;;90.43;34.72;;;;;;;0.07;76.02;97913.81;5051261;28;20129;-66
2021/12/11 07:52:32;;;;;;;68.78;29.27;;;;;;;0.09;76.16;97923.28;5039085;28;20033;-66
2021/12/11 07:54:57;;;;;;;60.03;26.88;;;;;;;0.10;76.27;97935.69;5030477;28;20462;-66
2021/12/11 07:57:23;;;;;;;65.93;32.65;;;;;;;0.10;75.69;97940.28;5037670;28;20025;-66
2021/12/11 07:59:48;;;;;;;93.25;39.45;;;;;;;0.11;75.88;97945.44;5051393;28;20155;-66
2021/12/11 08:02:14;;;;;;;79.82;33.80;;;;;;;0.22;75.68;97946.44;5033577;28;20360;-66
2021/12/11 08:04:40;;;;;;;63.50;29.30;;;;;;;0.34;76.14;97950.97;5039081;28;20094;-66
2021/12/11 08:07:05;;;;;;;57.53;26.00;;;;;;;0.44;76.41;97943.84;5035171;28;20563;-66
2021/12/11 08:09:31;;;;;;;61.47;28.13;;;;;;;0.52;76.23;97945.38;5030420;28;20029;-66
2021/12/11 08:11:56;;;;;;;65.47;31.52;;;;;;;0.58;76.46;97959.75;5030755;28;20033;-66
2021/12/11 08:14:23;;;;;;;52.55;27.65;;;;;;;0.58;76.16;97960.59;5030326;28;20367;-66
2021/12/11 08:16:53;;;;;;;61.03;27.77;;;;;;;0.56;75.70;97964.56;5029715;28;20445;-66
2021/12/11 08:19:21;;;;;;;78.63;29.30;;;;;;;0.56;75.82;97960.00;5031428;28;20036;-66
2021/12/11 08:21:49;;;;;;;109.40;34.35;;;;;;;0.61;75.23;97951.16;5029185;28;20025;-66
2021/12/11 08:24:15;;;;;;;96.40;31.90;;;;;;;0.72;75.78;97965.66;5029860;28;20291;-66
2021/12/11 08:26:42;;;;;;;87.30;34.17;;;;;;;0.77;75.61;97968.44;5030796;28;20064;-66
2021/12/11 08:29:11;;;;;;;61.85;28.10;;;;;;;0.82;75.14;97978.50;5030428;28;20056;-66
2021/12/11 08:31:39;;;;;;;54.17;25.65;;;;;;;0.82;75.40;97984.72;5030684;28;20246;-65
2021/12/11 08:34:05;;;;;;;35.45;17.40;;;;;;;0.80;74.46;97986.03;5029742;28;20069;-66
2021/12/11 08:36:31;;;;;;;33.20;16.60;;;;;;;0.79;74.48;97998.72;5030485;28;20517;-66
2021/12/11 08:38:58;;;;;;;32.67;16.27;;;;;;;0.78;74.49;98004.38;5030166;28;20516;-66
2021/12/11 08:41:27;;;;;;;37.97;19.80;;;;;;;0.75;74.02;98002.94;5030434;28;20417;-65
2021/12/11 08:43:59;;;;;;;40.00;19.27;;;;;;;0.71;74.07;98002.63;5029766;28;20026;-66
2021/12/11 08:46:27;;;;;;;43.22;23.30;;;;;;;0.76;74.00;98018.09;5028952;28;20028;-66
2021/12/11 08:48:55;;;;;;;43.22;21.77;;;;;;;0.85;74.15;98032.84;5029616;28;20022;-66
2021/12/11 08:51:36;;;;;;;46.65;22.98;;;;;;;0.98;74.79;98033.59;5030462;28;20014;-66
2021/12/11 08:54:04;;;;;;;53.08;22.77;;;;;;;1.03;74.13;98039.06;5029703;28;20060;-66
2021/12/11 08:56:29;;;;;;;47.17;22.55;;;;;;;1.04;73.90;98038.81;5036054;28;20082;-66
2021/12/11 08:58:56;;;;;;;47.80;21.42;;;;;;;1.11;73.67;98046.75;5036360;28;20022;-65
2021/12/11 09:01:27;;;;;;;44.17;21.23;;;;;;;1.14;73.89;98056.28;5034299;28;20544;-66
2021/12/11 09:04:28;;;;;;;43.33;21.02;;;;;;;1.09;73.92;98058.88;5040753;28;20053;-66
2021/12/11 09:07:03;;;;;;;49.05;24.20;;;;;;;1.06;73.15;98051.28;5030847;28;20478;-67
2021/12/11 09:09:45;;;;;;;53.80;23.95;;;;;;;1.02;73.02;98057.16;5035459;28;20064;-66
2021/12/11 09:12:24;;;;;;;46.13;24.33;;;;;;;1.00;73.65;98059.28;5039295;28;20041;-65
2021/12/11 09:15:01;;;;;;;54.93;27.87;;;;;;;1.05;73.57;98053.13;5033555;28;20030;-65
2021/12/11 09:17:35;;;;;;;61.92;24.75;;;;;;;1.03;73.05;98064.19;5048157;28;20053;-65
2021/12/11 09:20:09;;;;;;;55.30;21.38;;;;;;;0.94;71.78;98067.53;5048956;28;20082;-64
2021/12/11 09:23:00;;;;;;;54.88;22.80;;;;;;;0.86;71.59;98066.03;5038318;28;20029;-66
2021/12/11 09:25:42;;;;;;;62.45;26.77;;;;;;;0.87;71.96;98076.63;5035721;28;20067;-65
2021/12/11 09:28:10;;;;;;;39.85;19.02;;;;;;;0.91;71.57;98087.72;5035963;28;20579;-65
2021/12/11 09:30:35;;;;;;;47.30;20.70;;;;;;;0.92;72.16;98096.66;5037922;28;20026;-64
2021/12/11 09:33:06;;;;;;;62.20;31.02;;;;;;;0.88;71.71;98099.84;5036097;28;20059;-64
2021/12/11 09:35:41;;;;;;;56.78;26.20;;;;;;;0.89;72.12;98096.09;5032971;28;20040;-65
2021/12/11 09:38:20;;;;;;;65.82;29.23;;;;;;;0.91;72.25;98105.84;5035571;28;20536;-65
2021/12/11 09:40:46;;;;;;;52.85;25.40;;;;;;;0.94;72.38;98111.56;5036666;28;20091;-64
2021/12/11 09:43:32;;;;;;;45.42;21.30;;;;;;;0.99;72.16;98114.34;5038239;28;20044;-65
2021/12/11 09:45:58;;;;;;;52.67;24.90;;;;;;;1.04;72.45;98119.00;5039470;28;20033;-65
2021/12/11 09:48:24;;;;;;;46.92;25.38;;;;;;;1.07;71.96;98120.44;5036727;28;20021;-65
2021/12/11 09:51:01;;;;;;;66.13;29.48;;;;;;;1.09;71.59;98123.72;5034347;28;20025;-65
2021/12/11 09:53:33;;;;;;;117.55;45.80;;;;;;;1.09;71.38;98121.00;5049096;28;20094;-64
2021/12/11 09:56:01;;;;;;;91.75;37.35;;;;;;;1.16;71.89;98133.28;5049704;28;20493;-65
2021/12/11 09:58:33;;;;;;;84.88;40.40;;;;;;;1.14;71.71;98130.00;5050127;28;20028;-64
2021/12/11 10:01:16;;;;;;;80.22;34.58;;;;;;;1.11;71.28;98135.91;5049198;28;20519;-65
2021/12/11 10:03:56;;;;;;;84.32;32.33;;;;;;;1.12;71.75;98137.53;5031758;28;20120;-65
2021/12/11 10:06:40;;;;;;;89.57;32.38;;;;;;;1.14;71.33;98138.13;5041326;28;20029;-65
2021/12/11 10:09:18;;;;;;;81.60;30.52;;;;;;;1.15;71.52;98149.75;5051989;28;20048;-66
2021/12/11 10:11:59;;;;;;;58.45;22.75;;;;;;;1.14;70.86;98150.81;5053403;28;20549;-65
2021/12/11 10:14:34;;;;;;;60.00;25.27;;;;;;;1.11;71.34;98157.50;5052862;28;20021;-66
2021/12/11 10:17:03;;;;;;;57.75;26.13;;;;;;;1.09;70.13;98167.72;5051861;28;20029;-65
2021/12/11 10:19:30;;;;;;;34.00;16.58;;;;;;;1.03;69.73;98166.81;5051928;28;20473;-65
2021/12/11 10:22:01;;;;;;;40.83;19.60;;;;;;;1.01;69.87;98171.66;5052916;28;20477;-65
2021/12/11 10:24:30;;;;;;;44.80;22.13;;;;;;;1.02;70.93;98169.75;5052144;28;20021;-66
2021/12/11 10:26:57;;;;;;;43.40;25.98;;;;;;;1.10;70.95;98172.06;5052690;28;20017;-65
2021/12/11 10:29:23;;;;;;;35.13;19.58;;;;;;;1.15;70.79;98171.38;5053325;28;20024;-65
2021/12/11 10:31:54;;;;;;;45.40;25.45;;;;;;;1.17;71.09;98182.75;5053452;28;20369;-64
2021/12/11 10:34:24;;;;;;;44.15;22.02;;;;;;;1.23;71.15;98179.06;5052207;28;20041;-65
2021/12/11 10:37:15;;;;;;;63.50;29.58;;;;;;;1.26;70.53;98185.88;5052059;28;20025;-65
2021/12/11 10:39:45;;;;;;;41.88;18.85;;;;;;;1.28;70.61;98183.75;5052623;28;20025;-65
2021/12/11 10:42:12;;;;;;;33.60;17.10;;;;;;;1.30;70.64;98181.63;5051483;28;20032;-65
2021/12/11 10:44:42;;;;;;;45.83;19.35;;;;;;;1.28;70.25;98183.75;5052437;28;20430;-66
2021/12/11 10:47:12;;;;;;;45.22;18.92;;;;;;;1.27;70.37;98188.31;5051954;28;20029;-64
2021/12/11 10:49:40;;;;;;;52.65;21.95;;;;;;;1.26;70.51;98188.56;5052819;28;20025;-65
2021/12/11 10:52:11;;;;;;;59.72;23.95;;;;;;;1.25;70.65;98185.03;5052715;28;20029;-65
2021/12/11 10:54:37;;;;;;;32.88;15.05;;;;;;;1.22;70.24;98179.31;5052195;28;20025;-65
2021/12/11 10:57:03;;;;;;;42.72;18.10;;;;;;;1.23;70.57;98186.34;5051940;28;20024;-66
2021/12/11 10:59:32;;;;;;;31.45;13.88;;;;;;;1.17;70.24;98191.66;5052398;28;20086;-66
2021/12/11 11:02:02;;;;;;;27.43;13.57;;;;;;;1.10;69.47;98184.78;5052247;28;20029;-65
2021/12/11 11:04:33;;;;;;;20.90;11.35;;;;;;;1.09;69.89;98194.75;5052176;28;20354;-66
2021/12/11 11:07:01;;;;;;;;;;;;;;;1.04;69.45;98186.53;5038597;28;20037;-65
2021/12/11 11:09:27;;;;;;;15.38;8.05;;;;;;;0.99;69.12;98198.06;5041077;28;19982;-65
2021/12/11 11:11:56;;;;;;;19.23;8.63;;;;;;;0.94;69.23;98200.66;5050313;28;20021;-65
2021/12/11 11:14:24;;;;;;;21.85;10.02;;;;;;;0.88;69.46;98197.06;5035715;28;20474;-65
2021/12/11 11:16:54;;;;;;;23.25;11.48;;;;;;;0.89;69.68;98203.25;5031836;28;20078;-65
2021/12/11 11:19:25;;;;;;;23.13;14.65;;;;;;;0.93;69.63;98200.91;5032492;28;20063;-65
2021/12/11 11:21:58;;;;;;;20.85;11.18;;;;;;;0.92;69.79;98204.69;5032273;28;20021;-66
2021/12/11 11:24:29;;;;;;;25.05;12.65;;;;;;;0.90;69.49;98213.00;5049415;28;20021;-65
2021/12/11 11:26:55;;;;;;;26.95;13.07;;;;;;;0.91;69.24;98217.34;5051642;28;20116;-66
2021/12/11 11:29:25;;;;;;;27.48;13.38;;;;;;;0.91;69.19;98217.34;5051956;28;20465;-65
2021/12/11 11:31:56;;;;;;;31.98;12.90;;;;;;;0.91;69.93;98211.13;5050403;28;20044;-76
2021/12/11 11:34:24;;;;;;;27.65;13.00;;;;;;;0.91;69.70;98209.25;5051491;28;20497;-76
2021/12/11 11:36:51;;;;;;;34.67;14.15;;;;;;;0.93;69.81;98209.81;5050066;28;20025;-76
2021/12/11 11:39:19;;;;;;;33.92;15.27;;;;;;;0.94;69.54;98210.66;5051844;28;20499;-75
2021/12/11 11:41:53;;;;;;;34.40;15.85;;;;;;;0.97;69.58;98210.19;5050194;28;20183;-77
2021/12/11 11:44:21;;;;;;;27.42;12.93;;;;;;;1.01;69.45;98211.34;5051338;28;20029;-77
2021/12/11 11:46:47;;;;;;;31.73;12.38;;;;;;;1.03;69.38;98206.50;5039610;28;20032;-74
2021/12/11 11:49:16;;;;;;;33.35;13.65;;;;;;;1.00;69.16;98209.72;5045980;28;20485;-76
2021/12/11 11:51:55;;;;;;;38.92;15.85;;;;;;;0.99;69.82;98216.16;5050358;28;20483;-76
2021/12/11 11:54:25;;;;;;;29.35;14.38;;;;;;;1.00;69.74;98210.50;5050426;28;20150;-76
2021/12/11 11:57:02;;;;;;;28.58;14.95;;;;;;;1.07;69.62;98220.38;5044203;28;20029;-75